Carrick on Shannon, Ireland
Current Conditions -  °F | °C
As of 6:00 PM on Saturday 25 Oct 2014 (Local Time) from EIKN Reporting Station
Broken Clouds Broken Clouds  
Wind Chill: 42°   Ceiling: 2200
Heat Index: 48°   Visibility: 6mi
Dew Point: 45°   Wind: 15mph
Humidity: 87%   Direction: 220°SW
Pressure: 29.77"   Gusts: NA
Location:  53.95°N, 8.1°W
Report Text: EIKN 251800Z 22013KT 180V250 9999 BKN022 BKN048 09/07 Q1008 NOSIG
Loading
Personal Weather Stations






























Interactive Weather Map
Tropical Storm Tracking
New forecast layout! Learn more

10-Day Weather Forecast

Advertisements
Track Severe Weather on mobile